createdAt,value
2019-01-25T00:00:02.190Z,97.33
2019-01-25T00:01:13.267Z,95.57
2019-01-25T00:02:19.697Z,86.80
2019-01-25T00:03:25.850Z,95.80
2019-01-25T00:04:32.358Z,90.38
2019-01-25T00:05:47.151Z,97.30
2019-01-25T00:06:55.460Z,98.20
2019-01-25T00:08:08.065Z,91.57
2019-01-25T00:09:18.761Z,85.38
2019-01-25T00:10:38.569Z,80.87
2019-01-25T00:11:43.562Z,76.80
2019-01-25T00:12:51.969Z,98.20
2019-01-25T00:13:58.709Z,83.33
2019-01-25T00:15:10.168Z,83.45
2019-01-25T00:16:17.417Z,96.95
2019-01-25T00:17:23.729Z,84.75
2019-01-25T00:18:31.372Z,81.80
2019-01-25T00:19:45.061Z,99.67
2019-01-25T00:20:51.432Z,89.52
2019-01-25T00:22:02.429Z,95.67
2019-01-25T00:23:16.392Z,91.20
2019-01-25T00:24:35.549Z,93.47
2019-01-25T00:25:45.141Z,81.37
2019-01-25T00:26:56.982Z,87.82
2019-01-25T00:28:10.469Z,85.28
2019-01-25T00:29:53.853Z,96.78
2019-01-25T00:31:04.588Z,89.75
2019-01-25T00:32:14.313Z,87.35
2019-01-25T00:33:24.576Z,87.10
2019-01-25T00:34:32.130Z,93.07
2019-01-25T00:35:48.641Z,102.32
2019-01-25T00:37:16.743Z,84.45
2019-01-25T00:38:30.471Z,94.87
2019-01-25T00:39:45.147Z,84.30
2019-01-25T00:41:11.338Z,88.22
2019-01-25T00:42:20.451Z,93.03
2019-01-25T00:43:28.138Z,86.80
2019-01-25T00:44:41.795Z,104.83
2019-01-25T00:45:48.145Z,88.72
2019-01-25T00:46:54.328Z,94.58
2019-01-25T00:48:02.289Z,102.45
2019-01-25T00:49:08.043Z,107.27
2019-01-25T00:50:18.284Z,82.20
2019-01-25T00:51:29.660Z,96.55
2019-01-25T00:52:39.080Z,91.32
2019-01-25T00:55:54.718Z,86.12
2019-01-25T00:57:11.089Z,86.12
2019-01-25T00:59:58.446Z,98.35
2019-01-25T01:01:10.353Z,86.42
2019-01-25T01:02:18.500Z,86.57
2019-01-25T01:03:25.818Z,92.92
2019-01-25T01:04:31.882Z,94.42
2019-01-25T01:05:39.237Z,100.10
2019-01-25T01:06:51.153Z,93.03
2019-01-25T01:07:57.182Z,85.25
2019-01-25T01:09:09.128Z,92.30
2019-01-25T01:10:19.373Z,83.60
2019-01-25T01:11:35.689Z,90.50
2019-01-25T01:12:46.839Z,88.12
2019-01-25T01:14:13.715Z,91.67
2019-01-25T01:15:41.635Z,88.60
2019-01-25T01:17:03.083Z,85.70
2019-01-25T01:18:11.476Z,90.45
2019-01-25T01:21:22.128Z,88.85
2019-01-25T01:22:41.968Z,96.12
2019-01-25T01:23:53.258Z,101.90
2019-01-25T01:27:20.257Z,92.60
2019-01-25T01:28:38.879Z,92.60
2019-01-25T01:30:31.995Z,95.17
2019-01-25T01:31:56.268Z,86.97
2019-01-25T01:33:20.137Z,98.22
2019-01-25T01:34:37.029Z,88.30
2019-01-25T01:36:18.157Z,96.12
2019-01-25T01:37:25.137Z,84.60
2019-01-25T01:38:38.310Z,102.12
2019-01-25T01:39:43.840Z,79.92
2019-01-25T01:40:49.206Z,99.90
2019-01-25T01:41:54.585Z,85.38
2019-01-25T01:43:02.993Z,98.78
2019-01-25T01:44:08.400Z,91.15
2019-01-25T01:45:14.852Z,85.07
2019-01-25T01:46:21.022Z,98.15
2019-01-25T01:47:26.668Z,84.37
2019-01-25T01:48:36.774Z,96.78
2019-01-25T01:49:42.497Z,96.28
2019-01-25T01:50:47.721Z,89.32
2019-01-25T01:51:53.834Z,87.45
2019-01-25T01:52:59.396Z,90.67
2019-01-25T01:54:05.278Z,89.42
2019-01-25T01:55:11.100Z,83.15
2019-01-25T01:56:16.660Z,91.08
2019-01-25T01:57:24.116Z,92.33
2019-01-25T01:58:32.550Z,105.35
2019-01-25T01:59:41.254Z,89.62
2019-01-25T02:00:47.292Z,96.30
2019-01-25T02:01:52.820Z,98.37
2019-01-25T02:03:06.135Z,92.60
2019-01-25T02:04:11.861Z,90.70
2019-01-25T02:05:18.281Z,82.82
2019-01-25T02:06:23.618Z,88.50
2019-01-25T02:07:29.309Z,95.07
2019-01-25T02:08:34.956Z,94.37
2019-01-25T02:09:40.464Z,93.12
2019-01-25T02:10:48.400Z,90.97
2019-01-25T02:11:56.559Z,95.65
2019-01-25T02:13:04.396Z,88.85
2019-01-25T02:14:09.740Z,92.17
2019-01-25T02:15:18.385Z,90.85
2019-01-25T02:16:24.869Z,96.12
2019-01-25T02:17:30.253Z,97.88
2019-01-25T02:18:36.339Z,85.62
2019-01-25T02:19:41.680Z,86.92
2019-01-25T02:20:47.003Z,92.27
2019-01-25T02:21:54.992Z,105.05
2019-01-25T02:23:00.930Z,85.20
2019-01-25T02:24:07.022Z,96.97
2019-01-25T02:25:12.803Z,89.77
2019-01-25T02:26:18.674Z,83.75
2019-01-25T02:27:25.864Z,101.30
2019-01-25T02:28:32.471Z,81.63
2019-01-25T02:29:38.181Z,98.62
2019-01-25T02:30:44.165Z,83.65
2019-01-25T02:31:52.371Z,94.40
2019-01-25T02:32:58.379Z,93.82
2019-01-25T02:34:04.201Z,83.07
2019-01-25T02:35:10.307Z,89.50
2019-01-25T02:36:16.332Z,86.17
2019-01-25T02:37:21.832Z,90.28
2019-01-25T02:38:27.192Z,93.45
2019-01-25T02:39:35.638Z,82.95
2019-01-25T02:40:41.585Z,82.30
2019-01-25T02:41:47.025Z,82.65
2019-01-25T02:42:52.831Z,86.40
2019-01-25T02:43:58.572Z,82.60
2019-01-25T02:45:04.220Z,91.95
2019-01-25T02:46:09.533Z,86.40
2019-01-25T02:47:15.181Z,81.25
2019-01-25T02:48:20.550Z,86.05
2019-01-25T02:49:25.923Z,103.47
2019-01-25T02:50:31.387Z,87.80
2019-01-25T02:51:36.715Z,83.03
2019-01-25T02:52:42.476Z,92.62
2019-01-25T02:53:48.857Z,96.45
2019-01-25T02:54:54.088Z,100.05
2019-01-25T02:55:59.459Z,93.67
2019-01-25T02:57:05.266Z,101.02
2019-01-25T02:58:11.329Z,83.78
2019-01-25T02:59:19.880Z,96.75
2019-01-25T03:00:26.737Z,87.45
2019-01-25T03:01:32.195Z,85.32
2019-01-25T03:02:37.563Z,107.25
2019-01-25T03:03:43.326Z,102.38
2019-01-25T03:04:48.805Z,81.50
2019-01-25T03:05:55.908Z,87.12
2019-01-25T03:07:01.244Z,86.47
2019-01-25T03:08:07.252Z,81.53
2019-01-25T03:09:13.261Z,91.47
2019-01-25T03:10:19.559Z,86.20
2019-01-25T03:11:28.670Z,88.65
2019-01-25T03:12:34.064Z,82.65
2019-01-25T03:13:39.369Z,93.45
2019-01-25T03:14:45.067Z,92.33
2019-01-25T03:15:50.467Z,86.25
2019-01-25T03:16:55.742Z,92.53
2019-01-25T03:17:59.882Z,94.28
2019-01-25T03:19:05.236Z,89.35
2019-01-25T03:20:11.311Z,91.87
2019-01-25T03:21:16.591Z,97.40
2019-01-25T03:22:23.926Z,82.95
2019-01-25T03:23:29.170Z,79.47
2019-01-25T03:24:34.645Z,84.92
2019-01-25T03:25:40.078Z,84.07
2019-01-25T03:26:45.407Z,103.95
2019-01-25T03:27:50.947Z,84.92
2019-01-25T03:28:56.399Z,92.62
2019-01-25T03:30:01.843Z,95.42
2019-01-25T03:31:07.345Z,96.92
2019-01-25T03:32:14.732Z,91.37
2019-01-25T03:33:21.575Z,96.15
2019-01-25T03:34:33.645Z,111.88
2019-01-25T03:35:39.182Z,100.38
2019-01-25T03:36:47.497Z,100.05
2019-01-25T03:37:53.466Z,88.97
2019-01-25T03:38:59.397Z,89.67
2019-01-25T03:40:11.447Z,98.05
2019-01-25T03:41:16.705Z,94.83
2019-01-25T03:42:22.021Z,87.33
2019-01-25T03:43:28.966Z,94.70
2019-01-25T03:44:36.850Z,92.70
2019-01-25T03:45:42.593Z,97.15
2019-01-25T03:46:48.324Z,100.38
2019-01-25T03:47:55.053Z,106.92
2019-01-25T03:49:01.640Z,87.67
2019-01-25T03:50:08.925Z,84.47
2019-01-25T03:51:14.267Z,86.65
2019-01-25T03:53:23.916Z,84.80
2019-01-25T03:54:29.203Z,78.22
2019-01-25T03:55:34.766Z,90.72
2019-01-25T03:56:40.218Z,84.47
2019-01-25T03:57:45.772Z,89.95
2019-01-25T03:59:55.446Z,78.10
2019-01-25T04:01:01.909Z,92.80
2019-01-25T04:02:07.505Z,92.08
2019-01-25T04:03:12.801Z,93.47
2019-01-25T04:04:19.282Z,100.92
2019-01-25T04:05:27.829Z,102.15
2019-01-25T04:06:33.857Z,85.77
2019-01-25T04:07:39.318Z,94.65
2019-01-25T04:08:44.677Z,87.62
2019-01-25T04:09:51.426Z,94.00
2019-01-25T04:11:03.917Z,92.72
2019-01-25T04:12:08.826Z,89.77
2019-01-25T04:13:14.395Z,108.25
2019-01-25T04:14:22.461Z,89.58
2019-01-25T04:15:30.139Z,86.50
2019-01-25T04:16:36.012Z,87.50
2019-01-25T04:17:41.416Z,79.72
2019-01-25T04:18:46.800Z,89.87
2019-01-25T04:19:52.258Z,88.75
2019-01-25T04:20:57.515Z,101.55
2019-01-25T04:22:02.930Z,96.95
2019-01-25T04:23:08.525Z,117.00
2019-01-25T04:25:53.514Z,96.25
2019-01-25T04:26:58.999Z,94.97
2019-01-25T04:28:04.535Z,98.60
2019-01-25T04:29:09.969Z,96.02
2019-01-25T04:30:28.721Z,88.22
2019-01-25T04:31:33.891Z,95.92
2019-01-25T04:32:39.285Z,109.60
2019-01-25T04:33:44.688Z,162.88
2019-01-25T04:34:50.119Z,136.28
2019-01-25T04:35:57.637Z,126.75
2019-01-25T04:37:02.996Z,93.33
2019-01-25T04:38:12.802Z,119.80
2019-01-25T04:39:18.407Z,156.05
2019-01-25T04:40:23.933Z,123.58
2019-01-25T04:41:29.106Z,104.53
2019-01-25T04:42:35.151Z,98.58
2019-01-25T04:43:40.288Z,100.67
2019-01-25T04:44:46.977Z,114.20
2019-01-25T04:45:55.289Z,110.57
2019-01-25T04:47:00.691Z,116.05
2019-01-25T04:48:11.888Z,106.52
2019-01-25T04:49:17.080Z,102.17
2019-01-25T04:50:25.127Z,107.37
2019-01-25T04:51:30.682Z,108.37
2019-01-25T04:52:36.041Z,89.37
2019-01-25T04:53:41.592Z,106.85
2019-01-25T04:54:48.275Z,102.30
2019-01-25T04:55:53.913Z,102.45
2019-01-25T04:56:59.393Z,119.10
2019-01-25T04:58:16.358Z,101.67
2019-01-25T04:59:23.318Z,98.15
2019-01-25T05:00:31.832Z,100.27
2019-01-25T05:01:38.288Z,87.47
2019-01-25T05:02:47.316Z,103.83
2019-01-25T05:03:54.293Z,90.22
2019-01-25T05:04:59.734Z,97.55
2019-01-25T05:06:06.468Z,96.47
2019-01-25T05:07:13.260Z,95.70
2019-01-25T05:08:30.100Z,104.53
2019-01-25T05:09:42.326Z,89.28
2019-01-25T05:10:47.837Z,85.10
2019-01-25T05:11:55.816Z,91.08
2019-01-25T05:13:02.819Z,99.37
2019-01-25T05:14:08.381Z,101.22
2019-01-25T05:15:13.664Z,103.67
2019-01-25T05:16:19.286Z,97.12
2019-01-25T05:17:24.443Z,93.78
2019-01-25T05:18:31.987Z,98.47
2019-01-25T05:19:43.243Z,99.35
2019-01-25T05:20:48.582Z,104.20
2019-01-25T05:21:54.192Z,90.00
2019-01-25T05:23:00.777Z,93.17
2019-01-25T05:24:12.405Z,89.15
2019-01-25T05:25:22.489Z,97.72
2019-01-25T05:26:27.724Z,92.33
2019-01-25T05:27:33.104Z,105.32
2019-01-25T05:28:38.355Z,94.40
2019-01-25T05:30:01.484Z,104.60
2019-01-25T05:31:09.989Z,90.90
2019-01-25T05:32:17.834Z,103.20
2019-01-25T05:33:24.862Z,92.08
2019-01-25T05:34:30.913Z,95.57
2019-01-25T05:35:37.140Z,92.62
2019-01-25T05:36:42.456Z,94.52
2019-01-25T05:37:47.768Z,88.65
2019-01-25T05:38:53.189Z,104.00
2019-01-25T05:39:58.828Z,94.85
2019-01-25T05:41:05.356Z,83.75
2019-01-25T05:42:11.491Z,93.62
2019-01-25T05:43:16.801Z,90.65
2019-01-25T05:44:23.176Z,99.83
2019-01-25T05:45:30.187Z,102.53
2019-01-25T05:46:40.943Z,104.60
2019-01-25T05:47:49.944Z,101.15
2019-01-25T05:48:58.157Z,106.05
2019-01-25T05:50:03.828Z,104.92
2019-01-25T05:51:09.615Z,93.42
2019-01-25T05:52:21.704Z,100.18
2019-01-25T05:53:27.256Z,101.87
2019-01-25T05:54:32.782Z,100.75
2019-01-25T05:55:38.764Z,99.25
2019-01-25T05:56:48.748Z,90.05
2019-01-25T05:58:02.388Z,101.90
2019-01-25T05:59:08.136Z,98.65
2019-01-25T06:00:14.586Z,96.50
2019-01-25T06:01:20.478Z,97.70
2019-01-25T06:02:26.631Z,93.12
2019-01-25T06:03:32.852Z,91.25
2019-01-25T06:04:40.574Z,102.42
2019-01-25T06:05:47.236Z,98.03
2019-01-25T06:06:52.993Z,89.50
2019-01-25T06:08:09.820Z,92.78
2019-01-25T06:09:21.641Z,95.25
2019-01-25T06:10:33.312Z,92.55
2019-01-25T06:11:40.272Z,91.92
2019-01-25T06:12:47.885Z,102.27
2019-01-25T06:13:56.191Z,100.92
2019-01-25T06:15:02.105Z,98.78
2019-01-25T06:16:08.610Z,100.60
2019-01-25T06:17:13.926Z,98.15
2019-01-25T06:18:21.856Z,100.97
2019-01-25T06:19:27.122Z,85.90
2019-01-25T06:20:35.889Z,100.45
2019-01-25T06:21:43.661Z,105.27
2019-01-25T06:22:52.118Z,100.40
2019-01-25T06:23:57.751Z,96.42
2019-01-25T06:25:03.856Z,98.07
2019-01-25T06:26:11.450Z,100.58
2019-01-25T06:27:18.304Z,83.47
2019-01-25T06:28:26.794Z,90.10
2019-01-25T06:29:36.551Z,90.72
2019-01-25T06:30:47.067Z,95.55
2019-01-25T06:31:53.002Z,98.78
2019-01-25T06:33:11.375Z,103.85
2019-01-25T06:34:18.819Z,89.10
2019-01-25T06:35:25.966Z,106.37
2019-01-25T06:36:32.780Z,91.12
2019-01-25T06:37:38.376Z,98.35
2019-01-25T06:38:43.859Z,98.27
2019-01-25T06:39:51.152Z,94.97
2019-01-25T06:40:57.724Z,99.95
2019-01-25T06:42:04.421Z,96.87
2019-01-25T06:43:09.992Z,94.50
2019-01-25T06:44:15.425Z,106.92
2019-01-25T06:45:20.851Z,92.80
2019-01-25T06:46:26.912Z,107.32
2019-01-25T06:47:32.654Z,104.35
2019-01-25T06:48:37.893Z,103.12
2019-01-25T06:49:43.887Z,96.63
2019-01-25T06:50:52.000Z,111.40
2019-01-25T06:51:57.648Z,95.45
2019-01-25T06:53:03.131Z,92.00
2019-01-25T06:54:09.630Z,106.92
2019-01-25T06:55:18.033Z,102.72
2019-01-25T06:56:29.980Z,95.17
2019-01-25T06:57:56.153Z,101.75
2019-01-25T06:59:09.008Z,94.50
2019-01-25T07:00:19.199Z,103.53
2019-01-25T07:01:46.668Z,113.52
2019-01-25T07:02:53.616Z,107.32
2019-01-25T07:04:00.043Z,111.62
2019-01-25T07:05:06.782Z,103.02
2019-01-25T07:06:12.708Z,92.47
2019-01-25T07:07:29.331Z,104.30
2019-01-25T07:08:36.863Z,115.03
2019-01-25T07:09:45.760Z,106.00
2019-01-25T07:10:51.684Z,95.55
2019-01-25T07:11:57.715Z,96.92
2019-01-25T07:13:03.156Z,110.05
2019-01-25T07:14:09.055Z,100.45
2019-01-25T07:15:17.414Z,104.12
2019-01-25T07:16:23.232Z,102.32
2019-01-25T07:17:31.070Z,96.63
2019-01-25T07:18:38.684Z,106.65
2019-01-25T07:19:47.412Z,97.37
2019-01-25T07:20:54.578Z,96.28
2019-01-25T07:22:03.452Z,105.52
2019-01-25T07:23:10.254Z,103.45
2019-01-25T07:24:18.431Z,107.70
2019-01-25T07:25:35.609Z,97.12
2019-01-25T07:26:41.750Z,105.55
2019-01-25T07:27:49.189Z,105.47
2019-01-25T07:28:56.621Z,111.05
2019-01-25T07:30:04.308Z,107.17
2019-01-25T07:31:11.107Z,102.75
2019-01-25T07:32:18.169Z,120.35
2019-01-25T07:33:25.845Z,104.07
2019-01-25T07:34:35.541Z,104.67
2019-01-25T07:35:53.613Z,114.25
2019-01-25T07:37:03.329Z,117.65
2019-01-25T07:38:11.889Z,101.82
2019-01-25T07:39:30.227Z,108.07
2019-01-25T07:40:39.712Z,107.75
2019-01-25T07:41:45.797Z,116.47
2019-01-25T07:42:51.698Z,103.67
2019-01-25T07:43:59.626Z,104.75
2019-01-25T07:45:08.387Z,116.70
2019-01-25T07:46:23.170Z,116.28
2019-01-25T07:47:32.792Z,115.55
2019-01-25T07:48:43.183Z,106.43
2019-01-25T07:49:50.461Z,108.80
2019-01-25T07:50:59.821Z,121.62
2019-01-25T07:52:08.941Z,123.90
2019-01-25T07:53:15.488Z,108.57
2019-01-25T07:54:22.443Z,112.12
2019-01-25T07:55:28.915Z,134.03
2019-01-25T07:56:37.021Z,108.80
2019-01-25T07:57:42.871Z,106.37
2019-01-25T07:58:50.220Z,116.33
2019-01-25T08:00:00.936Z,109.25
2019-01-25T08:01:11.361Z,109.27
2019-01-25T08:02:17.206Z,118.82
2019-01-25T08:03:25.379Z,116.28
2019-01-25T08:04:38.947Z,119.17
2019-01-25T08:05:59.037Z,104.87
2019-01-25T08:06:55.883Z,109.30
2019-01-25T08:08:07.401Z,115.90
2019-01-25T08:09:18.641Z,112.22
2019-01-25T08:10:29.687Z,119.20
2019-01-25T08:11:39.586Z,103.58
2019-01-25T08:12:49.035Z,112.47
2019-01-25T08:13:55.519Z,113.20
2019-01-25T08:15:15.997Z,115.85
2019-01-25T08:16:25.746Z,115.80
2019-01-25T08:17:31.635Z,104.55
2019-01-25T08:18:37.941Z,105.43
2019-01-25T08:19:47.582Z,115.15
2019-01-25T08:20:54.942Z,112.28
2019-01-25T08:22:04.632Z,104.63
2019-01-25T08:23:13.812Z,124.20
2019-01-25T08:24:22.612Z,102.67
2019-01-25T08:25:28.729Z,119.02
2019-01-25T08:26:40.124Z,118.37
2019-01-25T08:27:50.709Z,116.12
2019-01-25T08:28:59.533Z,122.13
2019-01-25T08:30:13.166Z,122.50
2019-01-25T08:31:22.889Z,137.07
2019-01-25T08:32:30.407Z,112.77
2019-01-25T08:33:39.681Z,118.97
2019-01-25T08:34:47.637Z,116.55
2019-01-25T08:35:55.906Z,112.10
2019-01-25T08:37:17.134Z,102.40
2019-01-25T08:38:26.033Z,118.53
2019-01-25T08:39:32.267Z,109.48
2019-01-25T08:40:39.433Z,105.03
2019-01-25T08:41:55.910Z,128.57
2019-01-25T08:43:04.766Z,101.18
2019-01-25T08:44:11.442Z,112.10
2019-01-25T08:45:21.587Z,122.02
2019-01-25T08:46:29.767Z,140.92
2019-01-25T08:47:37.209Z,123.97
2019-01-25T08:49:06.271Z,134.40
2019-01-25T08:50:19.153Z,126.53
2019-01-25T08:51:32.133Z,112.22
2019-01-25T08:52:38.287Z,137.70
2019-01-25T08:53:47.740Z,113.30
2019-01-25T08:55:15.509Z,122.00
2019-01-25T08:56:22.611Z,105.63
2019-01-25T08:57:37.622Z,113.90
2019-01-25T08:59:04.846Z,112.05
2019-01-25T09:00:21.440Z,112.40
2019-01-25T09:01:32.825Z,130.20
2019-01-25T09:02:55.267Z,124.00
2019-01-25T09:04:05.340Z,112.22
2019-01-25T09:05:24.295Z,120.97
2019-01-25T09:06:38.224Z,103.55
2019-01-25T09:07:46.422Z,113.97
2019-01-25T09:08:59.324Z,116.08
2019-01-25T09:10:08.496Z,103.95
2019-01-25T09:11:15.295Z,112.30
2019-01-25T09:12:23.407Z,108.60
2019-01-25T09:13:31.186Z,114.97
2019-01-25T09:14:43.978Z,111.90
2019-01-25T09:15:54.131Z,106.97
2019-01-25T09:17:01.571Z,113.25
2019-01-25T09:18:35.310Z,113.85
2019-01-25T09:19:49.696Z,115.25
2019-01-25T09:20:55.630Z,111.35
2019-01-25T09:22:03.066Z,106.65
2019-01-25T09:23:15.549Z,125.72
2019-01-25T09:24:36.954Z,121.55
2019-01-25T09:25:44.586Z,115.00
2019-01-25T09:26:59.450Z,121.70
2019-01-25T09:28:08.476Z,123.15
2019-01-25T09:29:15.000Z,110.05
2019-01-25T09:30:26.385Z,118.00
2019-01-25T09:32:10.818Z,123.55
2019-01-25T09:33:16.753Z,107.03
2019-01-25T09:34:25.704Z,104.20
2019-01-25T09:35:35.295Z,115.67
2019-01-25T09:36:40.844Z,114.70
2019-01-25T09:37:46.998Z,143.13
2019-01-25T09:38:55.799Z,127.58
2019-01-25T09:40:02.105Z,155.52
2019-01-25T09:41:08.729Z,138.95
2019-01-25T09:42:16.239Z,163.12
2019-01-25T09:43:32.885Z,133.87
2019-01-25T09:44:41.177Z,132.67
2019-01-25T09:45:53.339Z,155.65
2019-01-25T09:47:03.046Z,131.22
2019-01-25T09:48:09.615Z,160.85
2019-01-25T09:49:19.029Z,177.02
2019-01-25T09:50:26.062Z,171.77
2019-01-25T09:51:42.748Z,157.07
2019-01-25T09:52:58.489Z,140.03
2019-01-25T09:54:09.340Z,146.62
2019-01-25T09:55:18.676Z,116.42
2019-01-25T09:56:30.235Z,154.95
2019-01-25T09:57:41.374Z,127.25
2019-01-25T09:58:53.386Z,122.62
2019-01-25T10:00:07.150Z,128.75
2019-01-25T10:01:18.725Z,116.62
2019-01-25T10:02:29.963Z,124.18
2019-01-25T10:03:39.983Z,112.88
2019-01-25T10:04:48.307Z,110.00
2019-01-25T10:05:57.143Z,108.63
2019-01-25T10:07:05.801Z,119.97
2019-01-25T10:08:16.118Z,118.60
2019-01-25T10:09:23.338Z,119.93
2019-01-25T10:10:31.667Z,133.10
2019-01-25T10:11:43.759Z,134.93
2019-01-25T10:12:50.192Z,116.47
2019-01-25T10:13:56.610Z,108.75
2019-01-25T10:15:02.463Z,106.50
2019-01-25T10:16:11.024Z,135.68
2019-01-25T10:17:17.774Z,113.47
2019-01-25T10:18:25.989Z,118.57
2019-01-25T10:19:33.625Z,118.17
2019-01-25T10:20:43.151Z,118.67
2019-01-25T10:21:52.152Z,135.50
2019-01-25T10:23:01.252Z,125.82
2019-01-25T10:24:09.270Z,128.87
2019-01-25T10:25:21.073Z,136.18
2019-01-25T10:26:30.195Z,131.27
2019-01-25T10:27:36.361Z,130.85
2019-01-25T10:28:46.422Z,120.92
2019-01-25T10:30:05.388Z,120.65
2019-01-25T10:31:11.308Z,130.27
2019-01-25T10:32:24.665Z,124.02
2019-01-25T10:33:39.662Z,125.62
2019-01-25T10:34:50.881Z,123.33
2019-01-25T10:36:01.093Z,119.72
2019-01-25T10:37:07.168Z,117.47
2019-01-25T10:38:13.815Z,116.17
2019-01-25T10:39:23.065Z,152.82
2019-01-25T10:40:35.738Z,124.47
2019-01-25T10:41:45.672Z,119.97
2019-01-25T10:43:03.999Z,124.60
2019-01-25T10:44:11.547Z,120.28
2019-01-25T10:45:31.896Z,120.05
2019-01-25T10:46:43.805Z,120.65
2019-01-25T10:47:50.333Z,116.05
2019-01-25T10:49:04.367Z,112.77
2019-01-25T10:50:11.945Z,114.70
2019-01-25T10:51:28.740Z,107.10
2019-01-25T10:52:31.497Z,122.85
2019-01-25T10:53:43.557Z,105.22
2019-01-25T10:54:52.282Z,121.70
2019-01-25T10:56:08.323Z,125.40
2019-01-25T10:57:16.392Z,129.45
2019-01-25T10:58:36.312Z,123.42
2019-01-25T10:59:44.791Z,138.65
2019-01-25T11:01:15.007Z,127.75
2019-01-25T11:02:24.269Z,144.55
2019-01-25T11:03:42.818Z,132.57
2019-01-25T11:04:54.565Z,126.82
2019-01-25T11:06:05.422Z,142.05
2019-01-25T11:07:13.555Z,116.82
2019-01-25T11:08:21.806Z,126.42
2019-01-25T11:09:40.885Z,103.22
2019-01-25T11:10:49.665Z,120.85
2019-01-25T11:11:56.661Z,108.47
2019-01-25T11:13:02.854Z,105.58
2019-01-25T11:14:16.774Z,127.30
2019-01-25T11:15:28.320Z,95.30
2019-01-25T11:16:41.295Z,105.30
2019-01-25T11:17:56.993Z,103.12
2019-01-25T11:19:05.998Z,132.07
2019-01-25T11:20:16.204Z,133.25
2019-01-25T11:21:22.559Z,124.47
2019-01-25T11:22:33.515Z,127.07
2019-01-25T11:23:47.919Z,133.07
2019-01-25T11:24:55.145Z,104.27
2019-01-25T11:26:10.232Z,157.67
2019-01-25T11:27:20.041Z,135.85
2019-01-25T11:28:29.338Z,130.05
2019-01-25T11:29:39.342Z,137.85
2019-01-25T11:30:47.770Z,137.05
2019-01-25T11:32:06.912Z,119.72
2019-01-25T11:33:23.330Z,113.83
2019-01-25T11:34:34.903Z,84.00
2019-01-25T11:35:41.832Z,92.78
2019-01-25T11:36:55.554Z,75.97
2019-01-25T11:38:02.883Z,83.87
2019-01-25T11:39:13.424Z,98.67
2019-01-25T11:40:31.684Z,85.20
2019-01-25T11:41:43.787Z,70.47
2019-01-25T11:43:09.033Z,58.80
2019-01-25T11:44:17.418Z,61.90
2019-01-25T11:45:26.506Z,60.40
2019-01-25T11:46:34.621Z,62.75
2019-01-25T11:47:43.289Z,52.93
2019-01-25T11:48:58.169Z,111.68
2019-01-25T11:50:04.176Z,90.42
2019-01-25T11:51:15.665Z,101.82
2019-01-25T11:52:26.822Z,86.17
2019-01-25T11:53:41.940Z,58.90
2019-01-25T11:54:54.147Z,50.78
2019-01-25T11:56:04.833Z,45.15
2019-01-25T11:57:59.320Z,52.55
2019-01-25T11:58:39.901Z,43.78
2019-01-25T11:59:52.930Z,40.38
2019-01-25T12:01:00.801Z,35.45
2019-01-25T12:02:09.558Z,31.65
2019-01-25T12:03:38.547Z,30.12
2019-01-25T12:04:48.305Z,31.57
2019-01-25T12:05:54.940Z,23.38
2019-01-25T12:07:13.751Z,42.20
2019-01-25T12:08:20.568Z,38.53
2019-01-25T12:09:27.262Z,43.17
2019-01-25T12:10:42.575Z,31.25
2019-01-25T12:12:02.519Z,36.42
2019-01-25T12:13:16.217Z,30.90
2019-01-25T12:15:09.932Z,23.75
2019-01-25T12:17:56.111Z,29.85
2019-01-25T12:19:04.653Z,25.25
2019-01-25T12:20:15.346Z,23.50
2019-01-25T12:21:21.868Z,22.60
2019-01-25T12:22:32.229Z,28.17
2019-01-25T12:23:41.678Z,30.45
2019-01-25T12:26:29.763Z,27.22
2019-01-25T12:27:36.229Z,27.22
2019-01-25T12:28:44.863Z,27.58
2019-01-25T12:29:54.669Z,28.70
2019-01-25T12:31:21.649Z,25.75
2019-01-25T12:32:40.881Z,31.80
2019-01-25T12:33:52.810Z,30.43
2019-01-25T12:35:07.381Z,32.15
2019-01-25T12:36:21.542Z,26.85
2019-01-25T12:37:48.020Z,25.60
2019-01-25T12:39:03.050Z,36.77
2019-01-25T12:40:16.360Z,28.30
2019-01-25T12:41:23.665Z,25.97
2019-01-25T12:43:37.020Z,30.60
2019-01-25T12:44:43.829Z,30.72
2019-01-25T12:45:50.342Z,31.65
2019-01-25T12:46:59.507Z,30.45
2019-01-25T12:48:09.280Z,33.48
2019-01-25T12:49:15.887Z,32.05
2019-01-25T12:50:37.635Z,27.77
2019-01-25T12:51:52.963Z,29.90
2019-01-25T12:53:00.779Z,26.57
2019-01-25T12:54:22.853Z,35.68
2019-01-25T12:55:34.253Z,45.98
2019-01-25T12:56:49.941Z,37.35
2019-01-25T12:58:04.050Z,38.58
2019-01-25T12:59:30.813Z,31.95
2019-01-25T13:00:42.913Z,37.17
2019-01-25T13:02:09.400Z,39.92
2019-01-25T13:03:15.305Z,41.53
2019-01-25T13:04:30.592Z,44.18
2019-01-25T13:05:51.371Z,51.58
2019-01-25T13:07:03.686Z,46.25
2019-01-25T13:08:09.518Z,57.45
2019-01-25T13:09:17.939Z,66.15
2019-01-25T13:10:27.343Z,77.15
2019-01-25T13:11:34.918Z,56.70
2019-01-25T13:13:00.185Z,83.87
2019-01-25T13:14:14.599Z,67.72
2019-01-25T13:15:26.321Z,61.35
2019-01-25T13:16:36.745Z,53.87
2019-01-25T13:17:49.126Z,61.58
2019-01-25T13:19:01.036Z,65.70
2019-01-25T13:20:16.170Z,70.47
2019-01-25T13:21:22.502Z,77.47
2019-01-25T13:22:35.854Z,81.47
2019-01-25T13:23:46.013Z,73.65
2019-01-25T13:24:56.411Z,68.70
2019-01-25T13:26:04.303Z,67.03
2019-01-25T13:27:10.520Z,63.92
2019-01-25T13:28:20.672Z,77.78
2019-01-25T13:30:43.087Z,77.03
2019-01-25T13:32:02.914Z,65.35
2019-01-25T13:33:12.310Z,67.58
2019-01-25T13:34:30.046Z,66.87
2019-01-25T13:35:41.538Z,66.12
2019-01-25T13:36:57.111Z,62.03
2019-01-25T13:38:13.509Z,75.97
2019-01-25T13:39:34.564Z,67.30
2019-01-25T13:40:51.190Z,74.30
2019-01-25T13:42:11.150Z,74.58
2019-01-25T13:43:27.538Z,69.87
2019-01-25T13:44:46.351Z,69.20
2019-01-25T13:46:07.102Z,71.37
2019-01-25T13:47:20.251Z,66.57
2019-01-25T13:48:27.284Z,82.80
2019-01-25T13:49:33.337Z,69.97
2019-01-25T13:50:41.943Z,73.12
2019-01-25T13:51:53.079Z,66.67
2019-01-25T13:53:00.836Z,68.75
2019-01-25T13:54:08.206Z,64.90
2019-01-25T13:55:18.246Z,68.35
2019-01-25T13:56:34.308Z,68.02
2019-01-25T13:57:46.749Z,65.40
2019-01-25T13:58:56.586Z,65.15
2019-01-25T14:00:06.008Z,71.22
2019-01-25T14:01:11.815Z,67.22
2019-01-25T14:02:21.459Z,73.45
2019-01-25T14:03:30.315Z,76.75
2019-01-25T14:04:36.098Z,71.87
2019-01-25T14:05:46.254Z,59.13
2019-01-25T14:07:00.079Z,69.80
2019-01-25T14:08:06.863Z,67.27
2019-01-25T14:09:12.773Z,75.22
2019-01-25T14:10:29.174Z,70.57
2019-01-25T14:11:36.410Z,70.03
2019-01-25T14:12:47.361Z,59.58
2019-01-25T14:13:53.269Z,76.57
2019-01-25T14:15:05.159Z,62.03
2019-01-25T14:16:17.466Z,72.10
2019-01-25T14:17:37.493Z,102.00
2019-01-25T14:18:49.092Z,93.65
2019-01-25T14:20:10.691Z,103.55
2019-01-25T14:21:32.785Z,80.42
2019-01-25T14:22:42.493Z,71.37
2019-01-25T14:23:59.847Z,65.22
2019-01-25T14:25:06.760Z,62.85
2019-01-25T14:26:19.384Z,54.13
2019-01-25T14:27:33.740Z,64.85
2019-01-25T14:28:58.730Z,54.00
2019-01-25T14:30:09.357Z,67.03
2019-01-25T14:31:25.909Z,92.33
2019-01-25T14:32:35.674Z,62.90
2019-01-25T14:33:43.843Z,67.40
2019-01-25T14:34:53.351Z,69.07
2019-01-25T14:35:59.970Z,75.70
2019-01-25T14:37:12.262Z,58.40
2019-01-25T14:38:40.465Z,67.78
2019-01-25T14:40:12.755Z,78.37
2019-01-25T14:41:19.767Z,73.07
2019-01-25T14:42:26.300Z,81.12
2019-01-25T14:43:35.697Z,63.08
2019-01-25T14:44:45.510Z,62.85
2019-01-25T14:45:58.776Z,63.52
2019-01-25T14:47:08.363Z,66.85
2019-01-25T14:48:24.067Z,67.72
2019-01-25T14:49:53.219Z,56.92
2019-01-25T14:51:04.294Z,54.98
2019-01-25T14:52:29.614Z,55.25
2019-01-25T14:53:37.885Z,66.70
2019-01-25T14:54:54.482Z,54.50
2019-01-25T14:56:05.552Z,56.70
2019-01-25T14:57:13.438Z,64.77
2019-01-25T14:58:44.595Z,60.98
2019-01-25T15:00:14.264Z,70.35
2019-01-25T15:01:29.730Z,74.25
2019-01-25T15:02:43.789Z,68.83
2019-01-25T15:03:58.737Z,62.98
2019-01-25T15:05:18.124Z,60.65
2019-01-25T15:06:28.750Z,56.05
2019-01-25T15:07:39.004Z,50.28